Station History

Weather Underground - logo

Station Historical Data
Daily Summary for January 30, 2018 Units:  Both    English   Metric
« Previous Day
Next Day »
Daily Weekly Monthly Yearly Custom
  High: Low: Average:
Temperature: 68.5 °F /  20.3 °C 39.5 °F /  4.2 °C 52.7 °F /  11.5 °C
Dew Point: 52.2 °F /  11.2 °C 38.0 °F /  3.3 °C 46.6 °F /  8.1 °C
Humidity: 96 % 52 % 82 %
Wind Speed: 3.5 mph /  5.6 km/h - 0.3 mph /  0.5 km/h
Wind Gust: 3.5 mph /  5.6 km/h - -
Wind:- - WSW
Pressure: 30.20 in /  1022.6 hPa 30.06 in /  1017.8 hPa -
Precipitation: 0.01 in /  0.25 mm    
Historical Graphs
 
 
Tabular Data for January 30, 2018
Time Temperature Dew Point Pressure Wind Wind Speed Wind Gust Humidity Rainfall Rate (Hourly)
00:00 45.8 °F /  7.7 °C 43.6 °F /  6.4 °C 30.20 in /  1022.6 hPa Calm     92 % 0.00 in /  0 mm
00:05 45.8 °F /  7.7 °C 43.9 °F /  6.6 °C 30.20 in /  1022.6 hPa Calm     93 % 0.00 in /  0 mm
00:10 46.1 °F /  7.8 °C 44.2 °F /  6.8 °C 30.20 in /  1022.6 hPa Calm     93 % 0.00 in /  0 mm
00:15 46.5 °F /  8.1 °C 44.6 °F /  7 °C 30.20 in /  1022.6 hPa Calm     93 % 0.00 in /  0 mm
00:20 46.7 °F /  8.2 °C 44.8 °F /  7.1 °C 30.19 in /  1022.2 hPa NE 1.2 mph /  1.9 km/h 1.2 mph /  1.9 km/h 93 % 0.00 in /  0 mm
00:25 46.9 °F /  8.3 °C 45.0 °F /  7.2 °C 30.20 in /  1022.6 hPa Calm     93 % 0.00 in /  0 mm
00:30 46.7 °F /  8.2 °C 44.5 °F /  6.9 °C 30.20 in /  1022.6 hPa Calm     92 % 0.00 in /  0 mm
00:35 46.5 °F /  8.1 °C 44.3 °F /  6.8 °C 30.20 in /  1022.6 hPa Calm     92 % 0.00 in /  0 mm
00:40 46.5 °F /  8.1 °C 44.3 °F /  6.8 °C 30.20 in /  1022.6 hPa Calm     92 % 0.00 in /  0 mm
00:45 46.3 °F /  7.9 °C 44.1 °F /  6.7 °C 30.20 in /  1022.6 hPa Calm     92 % 0.00 in /  0 mm
00:50 46.2 °F /  7.9 °C 44.0 °F /  6.7 °C 30.20 in /  1022.6 hPa Calm     92 % 0.00 in /  0 mm
00:55 46.0 °F /  7.8 °C 43.8 °F /  6.6 °C 30.20 in /  1022.6 hPa Calm     92 % 0.00 in /  0 mm
01:00 46.0 °F /  7.8 °C 44.1 °F /  6.7 °C 30.20 in /  1022.6 hPa Calm     93 % 0.00 in /  0 mm
01:05 45.9 °F /  7.7 °C 44.0 °F /  6.7 °C 30.20 in /  1022.6 hPa Calm     93 % 0.00 in /  0 mm
01:10 45.9 °F /  7.7 °C 44.0 °F /  6.7 °C 30.20 in /  1022.6 hPa Calm     93 % 0.00 in /  0 mm
01:15 45.8 °F /  7.7 °C 43.9 °F /  6.6 °C 30.20 in /  1022.6 hPa Calm     93 % 0.00 in /  0 mm
01:20 45.6 °F /  7.6 °C 43.7 °F /  6.5 °C 30.20 in /  1022.6 hPa Calm     93 % 0.00 in /  0 mm
01:25 45.6 °F /  7.6 °C 43.7 °F /  6.5 °C 30.20 in /  1022.6 hPa Calm     93 % 0.00 in /  0 mm
01:30 45.6 °F /  7.6 °C 43.7 °F /  6.5 °C 30.20 in /  1022.6 hPa Calm     93 % 0.00 in /  0 mm
01:35 45.6 °F /  7.6 °C 43.7 °F /  6.5 °C 30.20 in /  1022.6 hPa Calm     93 % 0.00 in /  0 mm
01:40 45.6 °F /  7.6 °C 43.7 °F /  6.5 °C 30.19 in /  1022.2 hPa Calm     93 % 0.00 in /  0 mm
01:45 45.7 °F /  7.6 °C 44.1 °F /  6.7 °C 30.19 in /  1022.2 hPa Calm     94 % 0.00 in /  0 mm
01:50 45.9 °F /  7.7 °C 44.3 °F /  6.8 °C 30.19 in /  1022.2 hPa Calm     94 % 0.00 in /  0 mm
01:55 45.9 °F /  7.7 °C 44.0 °F /  6.7 °C 30.19 in /  1022.2 hPa Calm     93 % 0.00 in /  0 mm
02:00 45.8 °F /  7.7 °C 43.9 °F /  6.6 °C 30.19 in /  1022.2 hPa Calm     93 % 0.00 in /  0 mm
02:05 45.7 °F /  7.6 °C 43.8 °F /  6.6 °C 30.19 in /  1022.2 hPa Calm     93 % 0.00 in /  0 mm
02:10 45.8 °F /  7.7 °C 43.9 °F /  6.6 °C 30.18 in /  1021.9 hPa Calm     93 % 0.00 in /  0 mm
02:15 45.8 °F /  7.7 °C 43.9 °F /  6.6 °C 30.18 in /  1021.9 hPa Calm     93 % 0.00 in /  0 mm
02:20 45.7 °F /  7.6 °C 43.8 °F /  6.6 °C 30.17 in /  1021.6 hPa Calm     93 % 0.00 in /  0 mm
02:25 45.9 °F /  7.7 °C 44.3 °F /  6.8 °C 30.18 in /  1021.9 hPa Calm     94 % 0.00 in /  0 mm
02:30 45.7 °F /  7.6 °C 43.8 °F /  6.6 °C 30.17 in /  1021.6 hPa Calm     93 % 0.00 in /  0 mm
02:35 45.6 °F /  7.6 °C 43.7 °F /  6.5 °C 30.17 in /  1021.6 hPa Calm     93 % 0.00 in /  0 mm
02:40 45.4 °F /  7.4 °C 43.5 °F /  6.4 °C 30.17 in /  1021.6 hPa Calm     93 % 0.00 in /  0 mm
02:45 45.1 °F /  7.3 °C 43.2 °F /  6.2 °C 30.17 in /  1021.6 hPa Calm     93 % 0.00 in /  0 mm
02:50 44.8 °F /  7.1 °C 42.9 °F /  6.1 °C 30.17 in /  1021.6 hPa Calm     93 % 0.00 in /  0 mm
02:55 44.6 °F /  7 °C 42.7 °F /  5.9 °C 30.16 in /  1021.2 hPa Calm     93 % 0.00 in /  0 mm
03:00 44.4 °F /  6.9 °C 42.5 °F /  5.8 °C 30.16 in /  1021.2 hPa Calm     93 % 0.00 in /  0 mm
03:05 44.1 °F /  6.7 °C 42.2 °F /  5.7 °C 30.16 in /  1021.2 hPa Calm     93 % 0.00 in /  0 mm
03:10 44.1 °F /  6.7 °C 42.2 °F /  5.7 °C 30.16 in /  1021.2 hPa Calm     93 % 0.00 in /  0 mm
03:15 44.0 °F /  6.7 °C 42.1 °F /  5.6 °C 30.16 in /  1021.2 hPa Calm     93 % 0.00 in /  0 mm
03:20 44.3 °F /  6.8 °C 42.7 °F /  5.9 °C 30.16 in /  1021.2 hPa Calm     94 % 0.00 in /  0 mm
03:25 44.1 °F /  6.7 °C 42.5 °F /  5.8 °C 30.16 in /  1021.2 hPa Calm     94 % 0.00 in /  0 mm
03:30 44.0 °F /  6.7 °C 42.4 °F /  5.8 °C 30.15 in /  1020.9 hPa Calm     94 % 0.00 in /  0 mm
03:35 43.9 °F /  6.6 °C 42.3 °F /  5.7 °C 30.15 in /  1020.9 hPa Calm     94 % 0.00 in /  0 mm
03:40 43.8 °F /  6.6 °C 41.9 °F /  5.5 °C 30.15 in /  1020.9 hPa Calm     93 % 0.00 in /  0 mm
03:45 43.6 °F /  6.4 °C 41.7 °F /  5.4 °C 30.15 in /  1020.9 hPa Calm     93 % 0.00 in /  0 mm
03:50 43.3 °F /  6.3 °C 41.4 °F /  5.2 °C 30.15 in /  1020.9 hPa Calm     93 % 0.00 in /  0 mm
03:55 43.1 °F /  6.2 °C 41.2 °F /  5.1 °C 30.15 in /  1020.9 hPa Calm     93 % 0.00 in /  0 mm
04:00 43.0 °F /  6.1 °C 41.4 °F /  5.2 °C 30.15 in /  1020.9 hPa Calm     94 % 0.00 in /  0 mm
04:05 43.2 °F /  6.2 °C 41.6 °F /  5.3 °C 30.15 in /  1020.9 hPa Calm     94 % 0.00 in /  0 mm
04:10 43.2 °F /  6.2 °C 41.6 °F /  5.3 °C 30.15 in /  1020.9 hPa Calm     94 % 0.00 in /  0 mm
04:15 42.8 °F /  6 °C 41.2 °F /  5.1 °C 30.15 in /  1020.9 hPa Calm     94 % 0.00 in /  0 mm
04:20 42.5 °F /  5.8 °C 40.9 °F /  4.9 °C 30.16 in /  1021.2 hPa Calm     94 % 0.00 in /  0 mm
04:25 42.6 °F /  5.9 °C 41.0 °F /  5 °C 30.16 in /  1021.2 hPa Calm     94 % 0.00 in /  0 mm
04:30 42.8 °F /  6 °C 41.5 °F /  5.3 °C 30.16 in /  1021.2 hPa Calm     95 % 0.00 in /  0 mm
04:35 42.8 °F /  6 °C 41.5 °F /  5.3 °C 30.16 in /  1021.2 hPa Calm     95 % 0.00 in /  0 mm
04:40 42.9 °F /  6.1 °C 41.6 °F /  5.3 °C 30.16 in /  1021.2 hPa Calm     95 % 0.00 in /  0 mm
04:45 42.8 °F /  6 °C 41.5 °F /  5.3 °C 30.16 in /  1021.2 hPa Calm     95 % 0.00 in /  0 mm
04:50 42.8 °F /  6 °C 41.5 °F /  5.3 °C 30.17 in /  1021.6 hPa Calm     95 % 0.00 in /  0 mm
04:55 42.8 °F /  6 °C 41.5 °F /  5.3 °C 30.17 in /  1021.6 hPa Calm     95 % 0.00 in /  0 mm
05:00 42.8 °F /  6 °C 41.5 °F /  5.3 °C 30.17 in /  1021.6 hPa Calm     95 % 0.00 in /  0 mm
05:05 42.8 °F /  6 °C 41.5 °F /  5.3 °C 30.17 in /  1021.6 hPa Calm     95 % 0.00 in /  0 mm
05:10 42.5 °F /  5.8 °C 41.2 °F /  5.1 °C 30.17 in /  1021.6 hPa Calm     95 % 0.00 in /  0 mm
05:15 41.9 °F /  5.5 °C 40.3 °F /  4.6 °C 30.17 in /  1021.6 hPa Calm     94 % 0.00 in /  0 mm
05:20 41.6 °F /  5.3 °C 40.0 °F /  4.4 °C 30.17 in /  1021.6 hPa Calm     94 % 0.00 in /  0 mm
05:25 41.5 °F /  5.3 °C 39.9 °F /  4.4 °C 30.17 in /  1021.6 hPa Calm     94 % 0.00 in /  0 mm
05:30 41.4 °F /  5.2 °C 39.8 °F /  4.3 °C 30.17 in /  1021.6 hPa Calm     94 % 0.00 in /  0 mm
05:35 41.5 °F /  5.3 °C 40.2 °F /  4.6 °C 30.17 in /  1021.6 hPa Calm     95 % 0.00 in /  0 mm
05:40 41.9 °F /  5.5 °C 40.6 °F /  4.8 °C 30.17 in /  1021.6 hPa Calm     95 % 0.00 in /  0 mm
05:46 41.8 °F /  5.4 °C 40.5 °F /  4.7 °C 30.17 in /  1021.6 hPa Calm     95 % 0.00 in /  0 mm
05:51 41.7 °F /  5.4 °C 40.4 °F /  4.7 °C 30.17 in /  1021.6 hPa Calm     95 % 0.00 in /  0 mm
05:56 41.6 °F /  5.3 °C 40.3 °F /  4.6 °C 30.17 in /  1021.6 hPa Calm     95 % 0.01 in /  0.25 mm
06:01 41.4 °F /  5.2 °C 40.1 °F /  4.5 °C 30.16 in /  1021.2 hPa Calm     95 % 0.01 in /  0.25 mm
06:06 41.0 °F /  5 °C 39.7 °F /  4.3 °C 30.17 in /  1021.6 hPa Calm     95 % 0.01 in /  0.25 mm
06:11 40.9 °F /  4.9 °C 39.6 °F /  4.2 °C 30.16 in /  1021.2 hPa Calm     95 % 0.01 in /  0.25 mm
06:16 40.8 °F /  4.9 °C 39.5 °F /  4.2 °C 30.16 in /  1021.2 hPa Calm     95 % 0.01 in /  0.25 mm
06:21 41.0 °F /  5 °C 39.7 °F /  4.3 °C 30.17 in /  1021.6 hPa Calm     95 % 0.01 in /  0.25 mm
06:26 40.7 °F /  4.8 °C 39.4 °F /  4.1 °C 30.17 in /  1021.6 hPa NE 1.2 mph /  1.9 km/h   95 % 0.01 in /  0.25 mm
06:31 40.7 °F /  4.8 °C 39.4 °F /  4.1 °C 30.17 in /  1021.6 hPa Calm     95 % 0.01 in /  0.25 mm
06:36 40.3 °F /  4.6 °C 38.7 °F /  3.7 °C 30.17 in /  1021.6 hPa Calm     94 % 0.01 in /  0.25 mm
06:41 39.9 °F /  4.4 °C 38.3 °F /  3.5 °C 30.17 in /  1021.6 hPa Calm     94 % 0.01 in /  0.25 mm
06:46 39.8 °F /  4.3 °C 38.2 °F /  3.4 °C 30.17 in /  1021.6 hPa Calm     94 % 0.01 in /  0.25 mm
06:51 39.6 °F /  4.2 °C 38.0 °F /  3.3 °C 30.17 in /  1021.6 hPa Calm     94 % 0.01 in /  0.25 mm
06:56 39.6 °F /  4.2 °C 38.3 °F /  3.5 °C 30.17 in /  1021.6 hPa Calm     95 % 0.00 in /  0 mm
07:01 39.5 °F /  4.2 °C 38.2 °F /  3.4 °C 30.17 in /  1021.6 hPa NE 1.2 mph /  1.9 km/h 1.2 mph /  1.9 km/h 95 % 0.00 in /  0 mm
07:06 39.7 °F /  4.3 °C 38.4 °F /  3.6 °C 30.17 in /  1021.6 hPa Calm     95 % 0.00 in /  0 mm
07:11 39.9 °F /  4.4 °C 38.6 °F /  3.7 °C 30.17 in /  1021.6 hPa Calm     95 % 0.00 in /  0 mm
07:16 39.9 °F /  4.4 °C 38.6 °F /  3.7 °C 30.17 in /  1021.6 hPa Calm     95 % 0.00 in /  0 mm
07:21 40.0 °F /  4.4 °C 38.7 °F /  3.7 °C 30.17 in /  1021.6 hPa Calm     95 % 0.00 in /  0 mm
07:26 39.9 °F /  4.4 °C 38.6 °F /  3.7 °C 30.18 in /  1021.9 hPa Calm     95 % 0.00 in /  0 mm
07:31 40.1 °F /  4.5 °C 38.8 °F /  3.8 °C 30.18 in /  1021.9 hPa Calm     95 % 0.00 in /  0 mm
07:36 40.6 °F /  4.8 °C 39.3 °F /  4.1 °C 30.18 in /  1021.9 hPa Calm     95 % 0.00 in /  0 mm
07:41 41.1 °F /  5.1 °C 40.0 °F /  4.4 °C 30.18 in /  1021.9 hPa Calm     96 % 0.00 in /  0 mm
07:46 41.6 °F /  5.3 °C 40.5 °F /  4.7 °C 30.18 in /  1021.9 hPa Calm     96 % 0.00 in /  0 mm
07:51 42.4 °F /  5.8 °C 41.3 °F /  5.2 °C 30.19 in /  1022.2 hPa NE 1.2 mph /  1.9 km/h   96 % 0.00 in /  0 mm
07:56 43.4 °F /  6.3 °C 42.3 °F /  5.7 °C 30.19 in /  1022.2 hPa Calm     96 % 0.00 in /  0 mm
08:01 44.9 °F /  7.2 °C 43.8 °F /  6.6 °C 30.19 in /  1022.2 hPa Calm     96 % 0.00 in /  0 mm
08:06 45.7 °F /  7.6 °C 44.6 °F /  7 °C 30.19 in /  1022.2 hPa Calm     96 % 0.00 in /  0 mm
08:11 46.5 °F /  8.1 °C 45.4 °F /  7.4 °C 30.19 in /  1022.2 hPa Calm     96 % 0.00 in /  0 mm
08:16 47.7 °F /  8.7 °C 46.6 °F /  8.1 °C 30.19 in /  1022.2 hPa Calm     96 % 0.00 in /  0 mm
08:21 49.2 °F /  9.6 °C 48.1 °F /  8.9 °C 30.19 in /  1022.2 hPa Calm     96 % 0.00 in /  0 mm
08:26 50.4 °F /  10.2 °C 48.7 °F /  9.3 °C 30.19 in /  1022.2 hPa Calm     94 % 0.00 in /  0 mm
08:31 51.4 °F /  10.8 °C 48.9 °F /  9.4 °C 30.19 in /  1022.2 hPa Calm     91 % 0.00 in /  0 mm
08:36 52.1 °F /  11.2 °C 49.0 °F /  9.4 °C 30.19 in /  1022.2 hPa Calm     89 % 0.00 in /  0 mm
08:41 52.7 °F /  11.5 °C 49.2 °F /  9.6 °C 30.19 in /  1022.2 hPa Calm     88 % 0.00 in /  0 mm
08:46 53.3 °F /  11.8 °C 49.5 °F /  9.7 °C 30.19 in /  1022.2 hPa Calm     87 % 0.00 in /  0 mm
08:51 54.2 °F /  12.3 °C 50.1 °F /  10.1 °C 30.19 in /  1022.2 hPa Calm     86 % 0.00 in /  0 mm
08:56 54.3 °F /  12.4 °C 49.6 °F /  9.8 °C 30.19 in /  1022.2 hPa SSE 1.2 mph /  1.9 km/h 1.2 mph /  1.9 km/h 84 % 0.00 in /  0 mm
09:01 54.3 °F /  12.4 °C 49.6 °F /  9.8 °C 30.18 in /  1021.9 hPa SE 1.2 mph /  1.9 km/h 1.2 mph /  1.9 km/h 84 % 0.00 in /  0 mm
09:06 54.9 °F /  12.7 °C 50.5 °F /  10.3 °C 30.18 in /  1021.9 hPa Calm     85 % 0.00 in /  0 mm
09:11 55.7 °F /  13.2 °C 50.6 °F /  10.3 °C 30.19 in /  1022.2 hPa Calm     83 % 0.00 in /  0 mm
09:16 56.2 °F /  13.4 °C 50.4 °F /  10.2 °C 30.19 in /  1022.2 hPa Calm     81 % 0.00 in /  0 mm
09:21 56.5 °F /  13.6 °C 50.7 °F /  10.4 °C 30.19 in /  1022.2 hPa Calm     81 % 0.00 in /  0 mm
09:26 56.8 °F /  13.8 °C 50.7 °F /  10.4 °C 30.19 in /  1022.2 hPa SE 2.3 mph /  3.7 km/h 2.3 mph /  3.7 km/h 80 % 0.00 in /  0 mm
09:31 56.7 °F /  13.7 °C 50.6 °F /  10.3 °C 30.19 in /  1022.2 hPa South 1.0 mph /  1.6 km/h 1.0 mph /  1.6 km/h 80 % 0.00 in /  0 mm
09:36 56.5 °F /  13.6 °C 50.1 °F /  10.1 °C 30.20 in /  1022.6 hPa NNE 2.3 mph /  3.7 km/h 2.3 mph /  3.7 km/h 79 % 0.00 in /  0 mm
09:41 55.8 °F /  13.2 °C 49.7 °F /  9.8 °C 30.20 in /  1022.6 hPa WNW 1.2 mph /  1.9 km/h 1.2 mph /  1.9 km/h 80 % 0.00 in /  0 mm
09:46 55.4 °F /  13 °C 49.7 °F /  9.8 °C 30.20 in /  1022.6 hPa WNW 1.2 mph /  1.9 km/h 1.2 mph /  1.9 km/h 81 % 0.00 in /  0 mm
09:51 55.0 °F /  12.8 °C 49.6 °F /  9.8 °C 30.20 in /  1022.6 hPa NW 1.2 mph /  1.9 km/h 1.2 mph /  1.9 km/h 82 % 0.00 in /  0 mm
09:56 54.9 °F /  12.7 °C 49.8 °F /  9.9 °C 30.20 in /  1022.6 hPa NW 1.0 mph /  1.6 km/h 1.0 mph /  1.6 km/h 83 % 0.00 in /  0 mm
10:01 54.7 °F /  12.6 °C 49.6 °F /  9.8 °C 30.20 in /  1022.6 hPa Calm     83 % 0.00 in /  0 mm
10:06 54.7 °F /  12.6 °C 49.6 °F /  9.8 °C 30.20 in /  1022.6 hPa Calm     83 % 0.00 in /  0 mm
10:11 55.1 °F /  12.8 °C 50.0 °F /  10 °C 30.19 in /  1022.2 hPa Calm     83 % 0.00 in /  0 mm
10:16 55.3 °F /  12.9 °C 50.2 °F /  10.1 °C 30.19 in /  1022.2 hPa Calm     83 % 0.00 in /  0 mm
10:21 55.7 °F /  13.2 °C 50.3 °F /  10.2 °C 30.19 in /  1022.2 hPa NW 1.2 mph /  1.9 km/h   82 % 0.00 in /  0 mm
10:26 56.1 °F /  13.4 °C 50.3 °F /  10.2 °C 30.19 in /  1022.2 hPa South 1.2 mph /  1.9 km/h 1.2 mph /  1.9 km/h 81 % 0.00 in /  0 mm
10:31 56.5 °F /  13.6 °C 50.7 °F /  10.4 °C 30.19 in /  1022.2 hPa Calm     81 % 0.00 in /  0 mm
10:36 56.8 °F /  13.8 °C 50.7 °F /  10.4 °C 30.19 in /  1022.2 hPa Calm     80 % 0.00 in /  0 mm
10:42 57.0 °F /  13.9 °C 50.5 °F /  10.3 °C 30.19 in /  1022.2 hPa South 2.3 mph /  3.7 km/h 2.3 mph /  3.7 km/h 79 % 0.00 in /  0 mm
10:47 57.2 °F /  14 °C 50.7 °F /  10.4 °C 30.19 in /  1022.2 hPa Calm     79 % 0.00 in /  0 mm
10:52 57.4 °F /  14.1 °C 50.6 °F /  10.3 °C 30.19 in /  1022.2 hPa Calm     78 % 0.00 in /  0 mm
10:57 57.8 °F /  14.3 °C 51.3 °F /  10.7 °C 30.19 in /  1022.2 hPa NW 1.2 mph /  1.9 km/h 1.2 mph /  1.9 km/h 79 % 0.00 in /  0 mm
11:02 57.9 °F /  14.4 °C 50.7 °F /  10.4 °C 30.18 in /  1021.9 hPa WNW 2.3 mph /  3.7 km/h 2.3 mph /  3.7 km/h 77 % 0.00 in /  0 mm
11:07 58.1 °F /  14.5 °C 50.6 °F /  10.3 °C 30.18 in /  1021.9 hPa WNW 2.3 mph /  3.7 km/h 2.3 mph /  3.7 km/h 76 % 0.00 in /  0 mm
11:12 58.4 °F /  14.7 °C 50.5 °F /  10.3 °C 30.18 in /  1021.9 hPa NNW 2.3 mph /  3.7 km/h 2.3 mph /  3.7 km/h 75 % 0.00 in /  0 mm
11:17 59.2 °F /  15.1 °C 51.3 °F /  10.7 °C 30.18 in /  1021.9 hPa NNE 2.3 mph /  3.7 km/h   75 % 0.00 in /  0 mm
11:22 59.8 °F /  15.4 °C 51.5 °F /  10.8 °C 30.18 in /  1021.9 hPa NNW 2.3 mph /  3.7 km/h 2.3 mph /  3.7 km/h 74 % 0.00 in /  0 mm
11:27 60.0 °F /  15.6 °C 51.3 °F /  10.7 °C 30.18 in /  1021.9 hPa Calm   0.2 mph /  0.3 km/h 73 % 0.00 in /  0 mm
11:32 60.4 °F /  15.8 °C 51.0 °F /  10.6 °C 30.17 in /  1021.6 hPa NW 1.2 mph /  1.9 km/h 1.2 mph /  1.9 km/h 71 % 0.00 in /  0 mm
11:37 60.8 °F /  16 °C 51.3 °F /  10.7 °C 30.17 in /  1021.6 hPa WNW 2.3 mph /  3.7 km/h 2.3 mph /  3.7 km/h 71 % 0.00 in /  0 mm
11:42 61.3 °F /  16.3 °C 52.2 °F /  11.2 °C 30.17 in /  1021.6 hPa Calm     72 % 0.00 in /  0 mm
11:47 62.1 °F /  16.7 °C 51.8 °F /  11 °C 30.16 in /  1021.2 hPa Calm     69 % 0.00 in /  0 mm
11:52 62.4 °F /  16.9 °C 51.7 °F /  10.9 °C 30.16 in /  1021.2 hPa Calm     68 % 0.00 in /  0 mm
11:57 62.6 °F /  17 °C 51.5 °F /  10.8 °C 30.16 in /  1021.2 hPa NW 1.2 mph /  1.9 km/h 1.2 mph /  1.9 km/h 67 % 0.00 in /  0 mm
12:02 62.7 °F /  17.1 °C 52.0 °F /  11.1 °C 30.15 in /  1020.9 hPa Calm     68 % 0.00 in /  0 mm
12:07 62.9 °F /  17.2 °C 51.0 °F /  10.6 °C 30.15 in /  1020.9 hPa Calm     65 % 0.00 in /  0 mm
12:12 63.2 °F /  17.3 °C 51.2 °F /  10.7 °C 30.15 in /  1020.9 hPa West 3.5 mph /  5.6 km/h 3.5 mph /  5.6 km/h 65 % 0.00 in /  0 mm
12:17 63.2 °F /  17.3 °C 51.2 °F /  10.7 °C 30.14 in /  1020.5 hPa NW 1.2 mph /  1.9 km/h   65 % 0.00 in /  0 mm
12:22 63.4 °F /  17.4 °C 51.0 °F /  10.6 °C 30.14 in /  1020.5 hPa Calm     64 % 0.00 in /  0 mm
12:27 63.9 °F /  17.7 °C 51.9 °F /  11.1 °C 30.14 in /  1020.5 hPa NNW 2.0 mph /  3.2 km/h 2.0 mph /  3.2 km/h 65 % 0.00 in /  0 mm
12:32 64.3 °F /  17.9 °C 51.0 °F /  10.6 °C 30.13 in /  1020.2 hPa Calm     62 % 0.00 in /  0 mm
12:37 64.9 °F /  18.3 °C 51.6 °F /  10.9 °C 30.13 in /  1020.2 hPa WNW 1.0 mph /  1.6 km/h 1.0 mph /  1.6 km/h 62 % 0.00 in /  0 mm
12:42 65.0 °F /  18.3 °C 51.2 °F /  10.7 °C 30.13 in /  1020.2 hPa NW 2.3 mph /  3.7 km/h 2.3 mph /  3.7 km/h 61 % 0.00 in /  0 mm
12:47 64.7 °F /  18.2 °C 50.9 °F /  10.5 °C 30.12 in /  1019.9 hPa NW 1.0 mph /  1.6 km/h 1.0 mph /  1.6 km/h 61 % 0.00 in /  0 mm
12:52 64.9 °F /  18.3 °C 50.2 °F /  10.1 °C 30.12 in /  1019.9 hPa NW 1.2 mph /  1.9 km/h 1.2 mph /  1.9 km/h 59 % 0.00 in /  0 mm
12:57 65.2 °F /  18.4 °C 50.5 °F /  10.3 °C 30.12 in /  1019.9 hPa West 1.2 mph /  1.9 km/h 1.2 mph /  1.9 km/h 59 % 0.00 in /  0 mm
13:02 65.6 °F /  18.7 °C 51.3 °F /  10.7 °C 30.12 in /  1019.9 hPa NE 1.2 mph /  1.9 km/h   60 % 0.00 in /  0 mm
13:07 66.1 °F /  18.9 °C 51.8 °F /  11 °C 30.11 in /  1019.5 hPa North 1.2 mph /  1.9 km/h   60 % 0.00 in /  0 mm
13:12 66.6 °F /  19.2 °C 51.8 °F /  11 °C 30.11 in /  1019.5 hPa Calm     59 % 0.00 in /  0 mm
13:17 66.8 °F /  19.3 °C 52.0 °F /  11.1 °C 30.11 in /  1019.5 hPa NW 1.2 mph /  1.9 km/h 1.2 mph /  1.9 km/h 59 % 0.00 in /  0 mm
13:22 66.4 °F /  19.1 °C 51.2 °F /  10.7 °C 30.11 in /  1019.5 hPa NW 1.2 mph /  1.9 km/h 1.2 mph /  1.9 km/h 58 % 0.00 in /  0 mm
13:27 66.3 °F /  19.1 °C 51.5 °F /  10.8 °C 30.10 in /  1019.2 hPa NW 1.2 mph /  1.9 km/h 1.2 mph /  1.9 km/h 59 % 0.00 in /  0 mm
13:32 66.4 °F /  19.1 °C 51.2 °F /  10.7 °C 30.10 in /  1019.2 hPa NNE 1.2 mph /  1.9 km/h   58 % 0.00 in /  0 mm
13:37 66.5 °F /  19.2 °C 51.7 °F /  10.9 °C 30.10 in /  1019.2 hPa NW 2.3 mph /  3.7 km/h 2.3 mph /  3.7 km/h 59 % 0.00 in /  0 mm
13:42 66.7 °F /  19.3 °C 51.5 °F /  10.8 °C 30.10 in /  1019.2 hPa NW 1.2 mph /  1.9 km/h 1.2 mph /  1.9 km/h 58 % 0.00 in /  0 mm
13:47 67.0 °F /  19.4 °C 50.8 °F /  10.4 °C 30.10 in /  1019.2 hPa NNE 1.2 mph /  1.9 km/h   56 % 0.00 in /  0 mm
13:52 67.0 °F /  19.4 °C 50.8 °F /  10.4 °C 30.09 in /  1018.8 hPa NW 1.2 mph /  1.9 km/h 1.2 mph /  1.9 km/h 56 % 0.00 in /  0 mm
13:57 67.3 °F /  19.6 °C 52.0 °F /  11.1 °C 30.09 in /  1018.8 hPa Calm     58 % 0.00 in /  0 mm
14:02 67.5 °F /  19.7 °C 51.2 °F /  10.7 °C 30.09 in /  1018.8 hPa NW 1.2 mph /  1.9 km/h 1.2 mph /  1.9 km/h 56 % 0.00 in /  0 mm
14:07 67.6 °F /  19.8 °C 50.9 °F /  10.5 °C 30.09 in /  1018.8 hPa NNW 2.3 mph /  3.7 km/h 2.3 mph /  3.7 km/h 55 % 0.00 in /  0 mm
14:12 67.7 °F /  19.8 °C 50.9 °F /  10.5 °C 30.09 in /  1018.8 hPa WNW 1.2 mph /  1.9 km/h   55 % 0.00 in /  0 mm
14:17 68.0 °F /  20 °C 51.7 °F /  10.9 °C 30.09 in /  1018.8 hPa Calm     56 % 0.00 in /  0 mm
14:22 68.3 °F /  20.2 °C 51.0 °F /  10.6 °C 30.09 in /  1018.8 hPa Calm     54 % 0.00 in /  0 mm
14:27 68.5 °F /  20.3 °C 51.2 °F /  10.7 °C 30.08 in /  1018.5 hPa WNW 1.0 mph /  1.6 km/h 1.0 mph /  1.6 km/h 54 % 0.00 in /  0 mm
14:32 68.4 °F /  20.2 °C 51.1 °F /  10.6 °C 30.09 in /  1018.8 hPa WSW 1.2 mph /  1.9 km/h 1.2 mph /  1.9 km/h 54 % 0.00 in /  0 mm
14:37 68.2 °F /  20.1 °C 50.4 °F /  10.2 °C 30.09 in /  1018.8 hPa WNW 3.5 mph /  5.6 km/h 3.5 mph /  5.6 km/h 53 % 0.00 in /  0 mm
14:42 67.9 °F /  19.9 °C 50.1 °F /  10.1 °C 30.08 in /  1018.5 hPa Calm   0.1 mph /  0.2 km/h 53 % 0.00 in /  0 mm
14:47 68.1 °F /  20.1 °C 51.8 °F /  11 °C 30.08 in /  1018.5 hPa NNW 2.3 mph /  3.7 km/h 2.3 mph /  3.7 km/h 56 % 0.00 in /  0 mm
14:52 68.0 °F /  20 °C 50.2 °F /  10.1 °C 30.08 in /  1018.5 hPa NW 1.2 mph /  1.9 km/h 1.2 mph /  1.9 km/h 53 % 0.00 in /  0 mm
14:57 67.9 °F /  19.9 °C 50.1 °F /  10.1 °C 30.08 in /  1018.5 hPa Calm     53 % 0.00 in /  0 mm
15:02 67.9 °F /  19.9 °C 50.1 °F /  10.1 °C 30.08 in /  1018.5 hPa NW 1.2 mph /  1.9 km/h 1.2 mph /  1.9 km/h 53 % 0.00 in /  0 mm
15:07 67.8 °F /  19.9 °C 50.5 °F /  10.3 °C 30.08 in /  1018.5 hPa NW 1.2 mph /  1.9 km/h 1.2 mph /  1.9 km/h 54 % 0.00 in /  0 mm
15:12 67.7 °F /  19.8 °C 49.9 °F /  9.9 °C 30.08 in /  1018.5 hPa West 1.2 mph /  1.9 km/h 1.2 mph /  1.9 km/h 53 % 0.00 in /  0 mm
15:17 67.5 °F /  19.7 °C 49.8 °F /  9.9 °C 30.08 in /  1018.5 hPa NW 1.2 mph /  1.9 km/h   53 % 0.00 in /  0 mm
15:22 67.5 °F /  19.7 °C 49.8 °F /  9.9 °C 30.08 in /  1018.5 hPa Calm     53 % 0.00 in /  0 mm
15:27 67.4 °F /  19.7 °C 49.7 °F /  9.8 °C 30.08 in /  1018.5 hPa NW 2.3 mph /  3.7 km/h 2.3 mph /  3.7 km/h 53 % 0.00 in /  0 mm
15:32 67.4 °F /  19.7 °C 49.7 °F /  9.8 °C 30.07 in /  1018.2 hPa Calm     53 % 0.00 in /  0 mm
15:37 67.4 °F /  19.7 °C 49.2 °F /  9.6 °C 30.07 in /  1018.2 hPa Calm     52 % 0.00 in /  0 mm
15:42 67.5 °F /  19.7 °C 49.3 °F /  9.6 °C 30.07 in /  1018.2 hPa WNW 1.2 mph /  1.9 km/h 1.2 mph /  1.9 km/h 52 % 0.00 in /  0 mm
15:47 67.5 °F /  19.7 °C 49.8 °F /  9.9 °C 30.07 in /  1018.2 hPa WNW 2.3 mph /  3.7 km/h 2.3 mph /  3.7 km/h 53 % 0.00 in /  0 mm
15:52 67.3 °F /  19.6 °C 49.6 °F /  9.8 °C 30.07 in /  1018.2 hPa NW 1.0 mph /  1.6 km/h 1.0 mph /  1.6 km/h 53 % 0.00 in /  0 mm
15:57 67.2 °F /  19.6 °C 49.0 °F /  9.4 °C 30.06 in /  1017.8 hPa Calm     52 % 0.00 in /  0 mm
16:02 67.1 °F /  19.5 °C 48.9 °F /  9.4 °C 30.06 in /  1017.8 hPa NW 1.2 mph /  1.9 km/h 1.2 mph /  1.9 km/h 52 % 0.00 in /  0 mm
16:07 67.1 °F /  19.5 °C 48.9 °F /  9.4 °C 30.06 in /  1017.8 hPa Calm     52 % 0.00 in /  0 mm
16:12 66.9 °F /  19.4 °C 48.7 °F /  9.3 °C 30.06 in /  1017.8 hPa Calm     52 % 0.00 in /  0 mm
16:17 66.8 °F /  19.3 °C 49.1 °F /  9.5 °C 30.06 in /  1017.8 hPa Calm     53 % 0.00 in /  0 mm
16:22 66.7 °F /  19.3 °C 50.5 °F /  10.3 °C 30.06 in /  1017.8 hPa Calm     56 % 0.00 in /  0 mm
16:27 66.4 °F /  19.1 °C 51.2 °F /  10.7 °C 30.06 in /  1017.8 hPa Calm     58 % 0.00 in /  0 mm
16:32 66.1 °F /  18.9 °C 51.4 °F /  10.8 °C 30.06 in /  1017.8 hPa SSE 1.2 mph /  1.9 km/h   59 % 0.00 in /  0 mm
16:37 65.8 °F /  18.8 °C 51.5 °F /  10.8 °C 30.06 in /  1017.8 hPa Calm     60 % 0.00 in /  0 mm
16:42 65.4 °F /  18.6 °C 51.6 °F /  10.9 °C 30.06 in /  1017.8 hPa Calm     61 % 0.00 in /  0 mm
16:47 65.1 °F /  18.4 °C 51.8 °F /  11 °C 30.07 in /  1018.2 hPa Calm     62 % 0.00 in /  0 mm
16:52 64.8 °F /  18.2 °C 51.9 °F /  11.1 °C 30.07 in /  1018.2 hPa Calm     63 % 0.00 in /  0 mm
16:57 64.5 °F /  18.1 °C 52.0 °F /  11.1 °C 30.07 in /  1018.2 hPa Calm     64 % 0.00 in /  0 mm
17:02 64.1 °F /  17.8 °C 52.1 °F /  11.2 °C 30.07 in /  1018.2 hPa Calm     65 % 0.00 in /  0 mm
17:07 63.6 °F /  17.6 °C 52.0 °F /  11.1 °C 30.06 in /  1017.8 hPa Calm     66 % 0.00 in /  0 mm
17:12 63.0 °F /  17.2 °C 51.9 °F /  11.1 °C 30.07 in /  1018.2 hPa Calm     67 % 0.00 in /  0 mm
17:17 62.4 °F /  16.9 °C 51.7 °F /  10.9 °C 30.07 in /  1018.2 hPa Calm     68 % 0.00 in /  0 mm
17:22 61.9 °F /  16.6 °C 51.6 °F /  10.9 °C 30.07 in /  1018.2 hPa Calm     69 % 0.00 in /  0 mm
17:27 61.4 °F /  16.3 °C 51.5 °F /  10.8 °C 30.07 in /  1018.2 hPa Calm     70 % 0.00 in /  0 mm
17:32 60.9 °F /  16.1 °C 51.4 °F /  10.8 °C 30.07 in /  1018.2 hPa Calm     71 % 0.00 in /  0 mm
17:37 60.4 °F /  15.8 °C 51.3 °F /  10.7 °C 30.07 in /  1018.2 hPa Calm     72 % 0.00 in /  0 mm
17:42 59.9 °F /  15.5 °C 50.8 °F /  10.4 °C 30.07 in /  1018.2 hPa Calm     72 % 0.00 in /  0 mm
17:47 59.5 °F /  15.3 °C 50.5 °F /  10.3 °C 30.07 in /  1018.2 hPa Calm     72 % 0.00 in /  0 mm
17:52 59.0 °F /  15 °C 50.0 °F /  10 °C 30.07 in /  1018.2 hPa Calm     72 % 0.00 in /  0 mm
17:58 58.7 °F /  14.8 °C 50.1 °F /  10.1 °C 30.08 in /  1018.5 hPa Calm     73 % 0.00 in /  0 mm
18:03 58.2 °F /  14.6 °C 50.0 °F /  10 °C 30.07 in /  1018.2 hPa Calm     74 % 0.00 in /  0 mm
18:08 57.8 °F /  14.3 °C 49.9 °F /  9.9 °C 30.08 in /  1018.5 hPa Calm     75 % 0.00 in /  0 mm
18:13 57.4 °F /  14.1 °C 49.9 °F /  9.9 °C 30.07 in /  1018.2 hPa Calm     76 % 0.00 in /  0 mm
18:18 57.0 °F /  13.9 °C 49.5 °F /  9.7 °C 30.07 in /  1018.2 hPa Calm     76 % 0.00 in /  0 mm
18:23 56.5 °F /  13.6 °C 49.4 °F /  9.7 °C 30.07 in /  1018.2 hPa Calm     77 % 0.00 in /  0 mm
18:28 56.3 °F /  13.5 °C 49.5 °F /  9.7 °C 30.07 in /  1018.2 hPa Calm     78 % 0.00 in /  0 mm
18:33 55.8 °F /  13.2 °C 49.0 °F /  9.4 °C 30.08 in /  1018.5 hPa Calm     78 % 0.00 in /  0 mm
18:38 55.3 °F /  12.9 °C 49.2 °F /  9.6 °C 30.08 in /  1018.5 hPa Calm     80 % 0.00 in /  0 mm
18:43 54.8 °F /  12.7 °C 49.1 °F /  9.5 °C 30.08 in /  1018.5 hPa Calm     81 % 0.00 in /  0 mm
18:48 54.6 °F /  12.6 °C 48.9 °F /  9.4 °C 30.07 in /  1018.2 hPa Calm     81 % 0.00 in /  0 mm
18:53 54.4 °F /  12.4 °C 48.7 °F /  9.3 °C 30.08 in /  1018.5 hPa Calm     81 % 0.00 in /  0 mm
18:59 53.9 °F /  12.2 °C 48.2 °F /  9 °C 30.07 in /  1018.2 hPa Calm     81 % 0.00 in /  0 mm
19:03 53.4 °F /  11.9 °C 48.0 °F /  8.9 °C 30.08 in /  1018.5 hPa Calm     82 % 0.00 in /  0 mm
19:09 52.9 °F /  11.6 °C 47.9 °F /  8.8 °C 30.08 in /  1018.5 hPa Calm     83 % 0.00 in /  0 mm
19:14 52.7 °F /  11.5 °C 48.3 °F /  9.1 °C 30.07 in /  1018.2 hPa Calm     85 % 0.00 in /  0 mm
19:19 52.8 °F /  11.6 °C 48.4 °F /  9.1 °C 30.08 in /  1018.5 hPa Calm     85 % 0.00 in /  0 mm
19:24 52.6 °F /  11.4 °C 48.2 °F /  9 °C 30.08 in /  1018.5 hPa Calm     85 % 0.00 in /  0 mm
19:29 52.6 °F /  11.4 °C 48.2 °F /  9 °C 30.07 in /  1018.2 hPa Calm     85 % 0.00 in /  0 mm
19:34 52.5 °F /  11.4 °C 48.1 °F /  8.9 °C 30.08 in /  1018.5 hPa Calm     85 % 0.00 in /  0 mm
19:39 52.4 °F /  11.3 °C 48.0 °F /  8.9 °C 30.08 in /  1018.5 hPa Calm     85 % 0.00 in /  0 mm
19:44 52.4 °F /  11.3 °C 48.0 °F /  8.9 °C 30.08 in /  1018.5 hPa Calm     85 % 0.00 in /  0 mm
19:49 52.3 °F /  11.3 °C 48.2 °F /  9 °C 30.08 in /  1018.5 hPa Calm     86 % 0.00 in /  0 mm
19:54 52.1 °F /  11.2 °C 48.0 °F /  8.9 °C 30.08 in /  1018.5 hPa Calm     86 % 0.00 in /  0 mm
19:59 51.8 °F /  11 °C 47.7 °F /  8.7 °C 30.08 in /  1018.5 hPa Calm     86 % 0.00 in /  0 mm
20:04 51.6 °F /  10.9 °C 47.9 °F /  8.8 °C 30.09 in /  1018.8 hPa Calm     87 % 0.00 in /  0 mm
20:09 51.4 °F /  10.8 °C 47.7 °F /  8.7 °C 30.09 in /  1018.8 hPa Calm     87 % 0.00 in /  0 mm
20:14 51.2 °F /  10.7 °C 47.5 °F /  8.6 °C 30.08 in /  1018.5 hPa Calm     87 % 0.00 in /  0 mm
20:19 50.8 °F /  10.4 °C 47.1 °F /  8.4 °C 30.09 in /  1018.8 hPa Calm     87 % 0.00 in /  0 mm
20:24 50.6 °F /  10.3 °C 46.9 °F /  8.3 °C 30.09 in /  1018.8 hPa Calm     87 % 0.00 in /  0 mm
20:29 50.5 °F /  10.3 °C 47.1 °F /  8.4 °C 30.09 in /  1018.8 hPa Calm     88 % 0.00 in /  0 mm
20:34 50.6 °F /  10.3 °C 47.2 °F /  8.4 °C 30.09 in /  1018.8 hPa Calm     88 % 0.00 in /  0 mm
20:39 50.7 °F /  10.4 °C 47.3 °F /  8.5 °C 30.10 in /  1019.2 hPa Calm     88 % 0.00 in /  0 mm
20:44 50.4 °F /  10.2 °C 47.0 °F /  8.3 °C 30.10 in /  1019.2 hPa Calm     88 % 0.00 in /  0 mm
20:49 50.0 °F /  10 °C 46.3 °F /  7.9 °C 30.10 in /  1019.2 hPa Calm     87 % 0.00 in /  0 mm
20:54 49.4 °F /  9.7 °C 46.0 °F /  7.8 °C 30.10 in /  1019.2 hPa Calm     88 % 0.00 in /  0 mm
20:59 49.1 °F /  9.5 °C 46.0 °F /  7.8 °C 30.10 in /  1019.2 hPa Calm     89 % 0.00 in /  0 mm
21:04 48.9 °F /  9.4 °C 45.8 °F /  7.7 °C 30.11 in /  1019.5 hPa Calm     89 % 0.00 in /  0 mm
21:09 48.8 °F /  9.3 °C 46.0 °F /  7.8 °C 30.11 in /  1019.5 hPa Calm     90 % 0.00 in /  0 mm
21:14 48.7 °F /  9.3 °C 45.9 °F /  7.7 °C 30.11 in /  1019.5 hPa Calm     90 % 0.00 in /  0 mm
21:19 48.5 °F /  9.2 °C 45.7 °F /  7.6 °C 30.11 in /  1019.5 hPa Calm     90 % 0.00 in /  0 mm
21:24 48.3 °F /  9.1 °C 45.5 °F /  7.5 °C 30.11 in /  1019.5 hPa Calm     90 % 0.00 in /  0 mm
21:29 48.1 °F /  8.9 °C 45.3 °F /  7.4 °C 30.11 in /  1019.5 hPa Calm     90 % 0.00 in /  0 mm
21:34 48.2 °F /  9 °C 45.7 °F /  7.6 °C 30.11 in /  1019.5 hPa Calm     91 % 0.00 in /  0 mm
21:39 48.2 °F /  9 °C 45.7 °F /  7.6 °C 30.11 in /  1019.5 hPa Calm     91 % 0.00 in /  0 mm
21:44 48.1 °F /  8.9 °C 45.6 °F /  7.6 °C 30.11 in /  1019.5 hPa Calm     91 % 0.00 in /  0 mm
21:49 47.9 °F /  8.8 °C 45.4 °F /  7.4 °C 30.11 in /  1019.5 hPa Calm     91 % 0.00 in /  0 mm
21:54 47.7 °F /  8.7 °C 45.2 °F /  7.3 °C 30.11 in /  1019.5 hPa Calm     91 % 0.00 in /  0 mm
21:59 47.6 °F /  8.7 °C 45.1 °F /  7.3 °C 30.11 in /  1019.5 hPa Calm     91 % 0.00 in /  0 mm
22:04 47.5 °F /  8.6 °C 45.0 °F /  7.2 °C 30.11 in /  1019.5 hPa Calm     91 % 0.00 in /  0 mm
22:09 47.3 °F /  8.5 °C 44.8 °F /  7.1 °C 30.11 in /  1019.5 hPa Calm     91 % 0.00 in /  0 mm
22:14 47.2 °F /  8.4 °C 44.7 °F /  7.1 °C 30.11 in /  1019.5 hPa Calm     91 % 0.00 in /  0 mm
22:19 47.3 °F /  8.5 °C 45.1 °F /  7.3 °C 30.11 in /  1019.5 hPa Calm     92 % 0.00 in /  0 mm
22:24 47.1 °F /  8.4 °C 44.6 °F /  7 °C 30.12 in /  1019.9 hPa Calm     91 % 0.00 in /  0 mm
22:29 47.1 °F /  8.4 °C 44.6 °F /  7 °C 30.11 in /  1019.5 hPa Calm     91 % 0.00 in /  0 mm
22:34 47.2 °F /  8.4 °C 44.7 °F /  7.1 °C 30.11 in /  1019.5 hPa Calm     91 % 0.00 in /  0 mm
22:39 47.2 °F /  8.4 °C 44.7 °F /  7.1 °C 30.11 in /  1019.5 hPa Calm     91 % 0.00 in /  0 mm
22:44 47.0 °F /  8.3 °C 44.5 °F /  6.9 °C 30.11 in /  1019.5 hPa Calm     91 % 0.00 in /  0 mm
22:49 47.0 °F /  8.3 °C 44.5 °F /  6.9 °C 30.11 in /  1019.5 hPa Calm     91 % 0.00 in /  0 mm
22:54 46.9 °F /  8.3 °C 44.4 °F /  6.9 °C 30.11 in /  1019.5 hPa Calm     91 % 0.00 in /  0 mm
22:59 46.9 °F /  8.3 °C 44.4 °F /  6.9 °C 30.11 in /  1019.5 hPa Calm     91 % 0.00 in /  0 mm
23:04 46.8 °F /  8.2 °C 44.6 °F /  7 °C 30.11 in /  1019.5 hPa Calm     92 % 0.00 in /  0 mm
23:09 46.7 °F /  8.2 °C 44.2 °F /  6.8 °C 30.11 in /  1019.5 hPa Calm     91 % 0.00 in /  0 mm
23:14 46.7 °F /  8.2 °C 44.2 °F /  6.8 °C 30.11 in /  1019.5 hPa Calm     91 % 0.00 in /  0 mm
23:19 46.6 °F /  8.1 °C 44.4 °F /  6.9 °C 30.10 in /  1019.2 hPa Calm     92 % 0.00 in /  0 mm
23:24 46.5 °F /  8.1 °C 44.0 °F /  6.7 °C 30.10 in /  1019.2 hPa Calm     91 % 0.00 in /  0 mm
23:29 46.3 °F /  7.9 °C 43.8 °F /  6.6 °C 30.10 in /  1019.2 hPa Calm     91 % 0.00 in /  0 mm
23:34 46.0 °F /  7.8 °C 43.5 °F /  6.4 °C 30.10 in /  1019.2 hPa Calm     91 % 0.00 in /  0 mm
23:39 45.9 °F /  7.7 °C 43.4 °F /  6.3 °C 30.10 in /  1019.2 hPa Calm     91 % 0.00 in /  0 mm
23:44 45.7 °F /  7.6 °C 43.2 °F /  6.2 °C 30.10 in /  1019.2 hPa Calm     91 % 0.00 in /  0 mm
23:49 45.5 °F /  7.5 °C 43.0 °F /  6.1 °C 30.10 in /  1019.2 hPa Calm     91 % 0.00 in /  0 mm
23:54 45.4 °F /  7.4 °C 43.2 °F /  6.2 °C 30.10 in /  1019.2 hPa Calm     92 % 0.00 in /  0 mm
23:59 45.3 °F /  7.4 °C 42.8 °F /  6 °C 30.10 in /  1019.2 hPa Calm     91 % 0.00 in /  0 mm
Park Place, Exeter, Tulare County, California, USA
Compliments of Weather Underground - 2.75 mb